<?xml version='1.0' encoding='UTF-8'?><gpx version="1.1" creator="JPX - https://github.com/jenetics/jpx" xmlns="http://www.topografix.com/GPX/1/1"><trk><trkseg><trkpt lat="46.4010775" lon="11.1071402"><ele>910.0</ele><time>2026-03-25T15:07:52.549Z</time></trkpt><trkpt lat="46.4011209" lon="11.1072509"><ele>910.0</ele><time>2026-03-25T15:07:54.558Z</time></trkpt><trkpt lat="46.4011133" lon="11.1073722"><ele>910.0</ele><time>2026-03-25T15:07:56.557Z</time></trkpt><trkpt lat="46.4010823" lon="11.1074914"><ele>910.0</ele><time>2026-03-25T15:07:58.545Z</time></trkpt><trkpt lat="46.400958" lon="11.1075984"><ele>910.0</ele><time>2026-03-25T15:08:00.543Z</time></trkpt><trkpt lat="46.4008703" lon="11.1076486"><ele>909.6666666666666</ele><time>2026-03-25T15:08:01.554Z</time></trkpt><trkpt lat="46.4007973" lon="11.1076966"><ele>909.3333333333333</ele><time>2026-03-25T15:08:02.555Z</time></trkpt><trkpt lat="46.4007412" lon="11.1077449"><ele>909.0</ele><time>2026-03-25T15:08:03.557Z</time></trkpt><trkpt lat="46.4006791" lon="11.1077793"><ele>908.6666666666667</ele><time>2026-03-25T15:08:04.562Z</time></trkpt><trkpt lat="46.4005763" lon="11.1078158"><ele>908.3333333333334</ele><time>2026-03-25T15:08:06.572Z</time></trkpt><trkpt lat="46.4004774" lon="11.1077697"><ele>908.0</ele><time>2026-03-25T15:08:08.565Z</time></trkpt><trkpt lat="46.400423" lon="11.107703"><ele>908.0000000000001</ele><time>2026-03-25T15:08:09.58Z</time></trkpt><trkpt lat="46.4003744" lon="11.107618"><ele>908.0</ele><time>2026-03-25T15:08:10.567Z</time></trkpt><trkpt lat="46.4003323" lon="11.1075492"><ele>908.0</ele><time>2026-03-25T15:08:11.558Z</time></trkpt><trkpt lat="46.4002785" lon="11.1074921"><ele>908.0</ele><time>2026-03-25T15:08:12.56Z</time></trkpt><trkpt lat="46.4001789" lon="11.1073839"><ele>908.0000000000001</ele><time>2026-03-25T15:08:14.561Z</time></trkpt><trkpt lat="46.4001171" lon="11.1073097"><ele>908.0</ele><time>2026-03-25T15:08:16.575Z</time></trkpt><trkpt lat="46.4000645" lon="11.1072284"><ele>908.5000000000001</ele><time>2026-03-25T15:08:19.574Z</time></trkpt><trkpt lat="46.4000118" lon="11.1071736"><ele>909.0</ele><time>2026-03-25T15:08:22.578Z</time></trkpt><trkpt lat="46.3999425" lon="11.1070832"><ele>909.5</ele><time>2026-03-25T15:08:25.574Z</time></trkpt><trkpt lat="46.3998849" lon="11.1070305"><ele>910.0</ele><time>2026-03-25T15:08:28.278Z</time></trkpt><trkpt lat="46.399812" lon="11.1069706"><ele>910.5000000000001</ele><time>2026-03-25T15:08:31.979Z</time></trkpt><trkpt lat="46.3997562" lon="11.1069204"><ele>911.0</ele><time>2026-03-25T15:08:34.796Z</time></trkpt><trkpt lat="46.3996825" lon="11.1068456"><ele>911.4</ele><time>2026-03-25T15:08:38.795Z</time></trkpt><trkpt lat="46.3996217" lon="11.1068041"><ele>911.8</ele><time>2026-03-25T15:08:40.792Z</time></trkpt><trkpt lat="46.3995603" lon="11.1067256"><ele>912.1999999999999</ele><time>2026-03-25T15:08:42.787Z</time></trkpt><trkpt lat="46.3994592" lon="11.1065357"><ele>912.5999999999999</ele><time>2026-03-25T15:09:50.808Z</time></trkpt><trkpt lat="46.3994035" lon="11.1064638"><ele>913.0</ele><time>2026-03-25T15:09:54.793Z</time></trkpt><trkpt lat="46.399346" lon="11.1063929"><ele>912.3333333333333</ele><time>2026-03-25T15:09:56.794Z</time></trkpt><trkpt lat="46.3992636" lon="11.1062868"><ele>911.6666666666666</ele><time>2026-03-25T15:10:02.805Z</time></trkpt><trkpt lat="46.3992198" lon="11.1062191"><ele>911.0</ele><time>2026-03-25T15:10:08.807Z</time></trkpt><trkpt lat="46.3991411" lon="11.1061811"><ele>910.3333333333333</ele><time>2026-03-25T15:10:23.802Z</time></trkpt><trkpt lat="46.3990704" lon="11.1061628"><ele>909.6666666666666</ele><time>2026-03-25T15:10:25.799Z</time></trkpt><trkpt lat="46.3989911" lon="11.1061989"><ele>909.0</ele><time>2026-03-25T15:10:27.795Z</time></trkpt><trkpt lat="46.3989576" lon="11.106277"><ele>909.0</ele><time>2026-03-25T15:10:28.792Z</time></trkpt><trkpt lat="46.3989189" lon="11.1063636"><ele>909.0</ele><time>2026-03-25T15:10:29.792Z</time></trkpt><trkpt lat="46.398881" lon="11.1065185"><ele>909.0</ele><time>2026-03-25T15:10:31.779Z</time></trkpt><trkpt lat="46.3988715" lon="11.1066144"><ele>909.0</ele><time>2026-03-25T15:10:33.794Z</time></trkpt><trkpt lat="46.3988099" lon="11.1066865"><ele>909.0</ele><time>2026-03-25T15:10:36.797Z</time></trkpt><trkpt lat="46.3987477" lon="11.1067366"><ele>909.0</ele><time>2026-03-25T15:10:38.794Z</time></trkpt><trkpt lat="46.3986661" lon="11.1067876"><ele>909.0</ele><time>2026-03-25T15:10:41.808Z</time></trkpt><trkpt lat="46.3985805" lon="11.106847"><ele>909.0</ele><time>2026-03-25T15:10:43.794Z</time></trkpt><trkpt lat="46.3984694" lon="11.1068721"><ele>909.0</ele><time>2026-03-25T15:10:45.799Z</time></trkpt><trkpt lat="46.3983985" lon="11.106883"><ele>909.0</ele><time>2026-03-25T15:10:46.792Z</time></trkpt><trkpt lat="46.3983187" lon="11.1068959"><ele>909.0</ele><time>2026-03-25T15:10:48.798Z</time></trkpt><trkpt lat="46.3982435" lon="11.1068648"><ele>909.0</ele><time>2026-03-25T15:10:50.8Z</time></trkpt><trkpt lat="46.3981505" lon="11.1068183"><ele>909.0</ele><time>2026-03-25T15:10:52.797Z</time></trkpt><trkpt lat="46.3980719" lon="11.1066791"><ele>909.0000000000001</ele><time>2026-03-25T15:10:54.803Z</time></trkpt><trkpt lat="46.398028" lon="11.1065852"><ele>909.0000000000001</ele><time>2026-03-25T15:10:55.791Z</time></trkpt><trkpt lat="46.3979909" lon="11.10648"><ele>909.0</ele><time>2026-03-25T15:10:56.791Z</time></trkpt><trkpt lat="46.3979319" lon="11.1063507"><ele>909.0</ele><time>2026-03-25T15:10:58.794Z</time></trkpt><trkpt lat="46.3978651" lon="11.1062275"><ele>906.6</ele><time>2026-03-25T15:11:00.778Z</time></trkpt><trkpt lat="46.3978166" lon="11.1061092"><ele>904.2</ele><time>2026-03-25T15:11:02.785Z</time></trkpt><trkpt lat="46.3977818" lon="11.1059724"><ele>901.8000000000001</ele><time>2026-03-25T15:11:04.779Z</time></trkpt><trkpt lat="46.3977451" lon="11.1058085"><ele>899.4000000000001</ele><time>2026-03-25T15:11:06.794Z</time></trkpt><trkpt lat="46.3977275" lon="11.1056753"><ele>897.0</ele><time>2026-03-25T15:11:08.795Z</time></trkpt><trkpt lat="46.3977168" lon="11.1055639"><ele>897.0</ele><time>2026-03-25T15:11:10.805Z</time></trkpt><trkpt lat="46.397708" lon="11.1054505"><ele>897.0</ele><time>2026-03-25T15:11:12.811Z</time></trkpt><trkpt lat="46.3976894" lon="11.1053073"><ele>897.0</ele><time>2026-03-25T15:11:14.808Z</time></trkpt><trkpt lat="46.3976548" lon="11.1051833"><ele>897.0</ele><time>2026-03-25T15:11:16.822Z</time></trkpt><trkpt lat="46.3976119" lon="11.1050277"><ele>897.0</ele><time>2026-03-25T15:11:18.794Z</time></trkpt><trkpt lat="46.3975995" lon="11.104898"><ele>897.0</ele><time>2026-03-25T15:11:20.822Z</time></trkpt><trkpt lat="46.3976438" lon="11.104965"><ele>897.0</ele><time>2026-03-25T15:11:31.801Z</time></trkpt><trkpt lat="46.3975907" lon="11.105051"><ele>897.0</ele><time>2026-03-25T15:11:34.804Z</time></trkpt><trkpt lat="46.3976334" lon="11.1049553"><ele>897.0</ele><time>2026-03-25T15:12:02.812Z</time></trkpt><trkpt lat="46.3976092" lon="11.1048452"><ele>897.0</ele><time>2026-03-25T15:12:05.808Z</time></trkpt><trkpt lat="46.3975952" lon="11.1047453"><ele>897.0</ele><time>2026-03-25T15:12:07.806Z</time></trkpt><trkpt lat="46.397558" lon="11.1046328"><ele>896.1666666666666</ele><time>2026-03-25T15:12:09.796Z</time></trkpt><trkpt lat="46.3975174" lon="11.1045022"><ele>895.3333333333333</ele><time>2026-03-25T15:12:11.8Z</time></trkpt><trkpt lat="46.397484" lon="11.1043903"><ele>894.5</ele><time>2026-03-25T15:12:13.803Z</time></trkpt><trkpt lat="46.3974644" lon="11.1042787"><ele>893.6666666666666</ele><time>2026-03-25T15:12:15.797Z</time></trkpt><trkpt lat="46.397461" lon="11.104176"><ele>892.8333333333333</ele><time>2026-03-25T15:12:17.793Z</time></trkpt><trkpt lat="46.3974728" lon="11.1040685"><ele>892.0</ele><time>2026-03-25T15:12:19.801Z</time></trkpt><trkpt lat="46.3974798" lon="11.1039659"><ele>890.4999999999999</ele><time>2026-03-25T15:12:21.798Z</time></trkpt><trkpt lat="46.3975042" lon="11.1038616"><ele>889.0</ele><time>2026-03-25T15:12:23.805Z</time></trkpt><trkpt lat="46.3975229" lon="11.103771"><ele>887.5</ele><time>2026-03-25T15:12:25.804Z</time></trkpt><trkpt lat="46.3975156" lon="11.103677"><ele>886.0</ele><time>2026-03-25T15:12:27.804Z</time></trkpt><trkpt lat="46.3974859" lon="11.1035596"><ele>884.4999999999999</ele><time>2026-03-25T15:12:30.803Z</time></trkpt><trkpt lat="46.3974557" lon="11.1034424"><ele>883.0</ele><time>2026-03-25T15:12:33.807Z</time></trkpt><trkpt lat="46.3974209" lon="11.1033278"><ele>880.9999999999999</ele><time>2026-03-25T15:12:36.808Z</time></trkpt><trkpt lat="46.3973753" lon="11.1032305"><ele>879.0</ele><time>2026-03-25T15:12:39.805Z</time></trkpt><trkpt lat="46.3973441" lon="11.1031226"><ele>877.0</ele><time>2026-03-25T15:12:42.81Z</time></trkpt><trkpt lat="46.3973259" lon="11.1029963"><ele>875.0</ele><time>2026-03-25T15:12:45.804Z</time></trkpt><trkpt lat="46.3973051" lon="11.1028873"><ele>872.9999999999999</ele><time>2026-03-25T15:12:48.805Z</time></trkpt><trkpt lat="46.3972558" lon="11.1028057"><ele>871.0</ele><time>2026-03-25T15:12:51.804Z</time></trkpt><trkpt lat="46.3972186" lon="11.1027183"><ele>871.6666666666666</ele><time>2026-03-25T15:12:54.802Z</time></trkpt><trkpt lat="46.3971675" lon="11.102619"><ele>872.3333333333333</ele><time>2026-03-25T15:12:57.805Z</time></trkpt><trkpt lat="46.3971241" lon="11.1025485"><ele>873.0</ele><time>2026-03-25T15:13:04.804Z</time></trkpt><trkpt lat="46.3970578" lon="11.1025428"><ele>873.6666666666667</ele><time>2026-03-25T15:13:07.8Z</time></trkpt><trkpt lat="46.3970077" lon="11.1026625"><ele>874.3333333333334</ele><time>2026-03-25T15:13:10.796Z</time></trkpt><trkpt lat="46.3969644" lon="11.10276"><ele>875.0</ele><time>2026-03-25T15:13:12.803Z</time></trkpt><trkpt lat="46.3969465" lon="11.1028687"><ele>875.0000000000001</ele><time>2026-03-25T15:13:14.8Z</time></trkpt><trkpt lat="46.3969324" lon="11.1029695"><ele>875.0</ele><time>2026-03-25T15:13:16.805Z</time></trkpt><trkpt lat="46.3969056" lon="11.1030734"><ele>875.0</ele><time>2026-03-25T15:13:18.799Z</time></trkpt><trkpt lat="46.3968887" lon="11.1031797"><ele>875.0</ele><time>2026-03-25T15:13:20.794Z</time></trkpt><trkpt lat="46.3968367" lon="11.1032919"><ele>875.0000000000001</ele><time>2026-03-25T15:13:23.802Z</time></trkpt><trkpt lat="46.3968023" lon="11.1033791"><ele>875.0</ele><time>2026-03-25T15:13:25.803Z</time></trkpt><trkpt lat="46.3967658" lon="11.1034734"><ele>875.5000000000001</ele><time>2026-03-25T15:13:28.805Z</time></trkpt><trkpt lat="46.3967161" lon="11.1035639"><ele>876.0</ele><time>2026-03-25T15:13:31.807Z</time></trkpt><trkpt lat="46.3966879" lon="11.1036735"><ele>876.5</ele><time>2026-03-25T15:13:34.806Z</time></trkpt><trkpt lat="46.3966479" lon="11.1037686"><ele>877.0</ele><time>2026-03-25T15:13:37.798Z</time></trkpt><trkpt lat="46.396637" lon="11.1038635"><ele>877.5000000000001</ele><time>2026-03-25T15:13:42.807Z</time></trkpt><trkpt lat="46.3966963" lon="11.103796"><ele>878.0</ele><time>2026-03-25T15:13:49.807Z</time></trkpt><trkpt lat="46.3967345" lon="11.1036907"><ele>878.0000000000001</ele><time>2026-03-25T15:13:51.807Z</time></trkpt><trkpt lat="46.3967704" lon="11.1035987"><ele>878.0</ele><time>2026-03-25T15:13:53.813Z</time></trkpt><trkpt lat="46.3968032" lon="11.1034782"><ele>878.0</ele><time>2026-03-25T15:13:56.816Z</time></trkpt><trkpt lat="46.3968353" lon="11.1033687"><ele>878.0</ele><time>2026-03-25T15:13:59.81Z</time></trkpt><trkpt lat="46.396762" lon="11.1033533"><ele>878.0000000000001</ele><time>2026-03-25T15:14:09.809Z</time></trkpt><trkpt lat="46.3967067" lon="11.1032855"><ele>878.0</ele><time>2026-03-25T15:14:34.793Z</time></trkpt><trkpt lat="46.396767" lon="11.103376"><ele>878.0000000000001</ele><time>2026-03-25T15:15:49.81Z</time></trkpt><trkpt lat="46.3968536" lon="11.1033754"><ele>878.0</ele><time>2026-03-25T15:15:53.797Z</time></trkpt><trkpt lat="46.3968886" lon="11.1032744"><ele>878.0</ele><time>2026-03-25T15:15:55.803Z</time></trkpt><trkpt lat="46.3969069" lon="11.1031513"><ele>878.0</ele><time>2026-03-25T15:15:59.827Z</time></trkpt><trkpt lat="46.3969329" lon="11.1030392"><ele>878.0000000000001</ele><time>2026-03-25T15:16:07.807Z</time></trkpt><trkpt lat="46.3969537" lon="11.1029462"><ele>878.0</ele><time>2026-03-25T15:16:09.806Z</time></trkpt><trkpt lat="46.3969801" lon="11.1028408"><ele>877.5000000000001</ele><time>2026-03-25T15:16:12.803Z</time></trkpt><trkpt lat="46.3970122" lon="11.1027233"><ele>877.0</ele><time>2026-03-25T15:16:15.807Z</time></trkpt><trkpt lat="46.3970241" lon="11.1026043"><ele>876.5</ele><time>2026-03-25T15:16:18.806Z</time></trkpt><trkpt lat="46.3970513" lon="11.102493"><ele>876.0</ele><time>2026-03-25T15:16:21.807Z</time></trkpt><trkpt lat="46.3970653" lon="11.1024033"><ele>875.5000000000001</ele><time>2026-03-25T15:16:24.803Z</time></trkpt><trkpt lat="46.3969797" lon="11.102318"><ele>875.0</ele><time>2026-03-25T15:16:27.799Z</time></trkpt><trkpt lat="46.3969223" lon="11.1022237"><ele>873.8</ele><time>2026-03-25T15:16:29.796Z</time></trkpt><trkpt lat="46.3968601" lon="11.1021142"><ele>872.6</ele><time>2026-03-25T15:16:31.799Z</time></trkpt><trkpt lat="46.3967652" lon="11.1020025"><ele>871.4000000000001</ele><time>2026-03-25T15:16:33.788Z</time></trkpt><trkpt lat="46.3967074" lon="11.1018965"><ele>870.2</ele><time>2026-03-25T15:16:35.797Z</time></trkpt><trkpt lat="46.3966601" lon="11.1018054"><ele>869.0</ele><time>2026-03-25T15:16:37.8Z</time></trkpt><trkpt lat="46.3966159" lon="11.1016784"><ele>867.1666666666667</ele><time>2026-03-25T15:16:39.792Z</time></trkpt><trkpt lat="46.3965697" lon="11.1015596"><ele>865.3333333333334</ele><time>2026-03-25T15:16:41.789Z</time></trkpt><trkpt lat="46.3965331" lon="11.1014626"><ele>863.5</ele><time>2026-03-25T15:16:43.794Z</time></trkpt><trkpt lat="46.3964976" lon="11.1013709"><ele>861.6666666666667</ele><time>2026-03-25T15:16:46.804Z</time></trkpt><trkpt lat="46.3964602" lon="11.1012932"><ele>859.8333333333334</ele><time>2026-03-25T15:16:49.794Z</time></trkpt><trkpt lat="46.3964179" lon="11.1012227"><ele>858.0</ele><time>2026-03-25T15:16:52.799Z</time></trkpt><trkpt lat="46.396375" lon="11.1011114"><ele>857.5</ele><time>2026-03-25T15:16:55.793Z</time></trkpt><trkpt lat="46.3963185" lon="11.1010188"><ele>857.0</ele><time>2026-03-25T15:16:58.796Z</time></trkpt><trkpt lat="46.3962934" lon="11.1009025"><ele>856.5</ele><time>2026-03-25T15:17:01.812Z</time></trkpt><trkpt lat="46.3962859" lon="11.1007749"><ele>856.0</ele><time>2026-03-25T15:17:04.795Z</time></trkpt><trkpt lat="46.3963015" lon="11.1006491"><ele>855.5</ele><time>2026-03-25T15:17:07.799Z</time></trkpt><trkpt lat="46.3963483" lon="11.100547"><ele>855.0</ele><time>2026-03-25T15:17:10.798Z</time></trkpt><trkpt lat="46.3964033" lon="11.1004364"><ele>853.6666666666666</ele><time>2026-03-25T15:17:13.796Z</time></trkpt><trkpt lat="46.3964528" lon="11.1003358"><ele>852.3333333333333</ele><time>2026-03-25T15:17:16.804Z</time></trkpt><trkpt lat="46.3964947" lon="11.1002441"><ele>851.0</ele><time>2026-03-25T15:17:19.808Z</time></trkpt><trkpt lat="46.3965362" lon="11.1001374"><ele>849.6666666666666</ele><time>2026-03-25T15:17:22.809Z</time></trkpt><trkpt lat="46.3965721" lon="11.1000566"><ele>848.3333333333333</ele><time>2026-03-25T15:17:25.812Z</time></trkpt><trkpt lat="46.3966116" lon="11.0999577"><ele>847.0</ele><time>2026-03-25T15:17:29.815Z</time></trkpt><trkpt lat="46.3966405" lon="11.0998734"><ele>846.9999999999999</ele><time>2026-03-25T15:17:34.808Z</time></trkpt><trkpt lat="46.3965763" lon="11.0998293"><ele>847.0</ele><time>2026-03-25T15:17:37.806Z</time></trkpt><trkpt lat="46.3965069" lon="11.0998386"><ele>847.0</ele><time>2026-03-25T15:17:39.803Z</time></trkpt><trkpt lat="46.3964051" lon="11.0998601"><ele>847.0</ele><time>2026-03-25T15:17:41.807Z</time></trkpt><trkpt lat="46.3963519" lon="11.0999761"><ele>846.9999999999999</ele><time>2026-03-25T15:17:43.798Z</time></trkpt><trkpt lat="46.3963092" lon="11.1001132"><ele>847.0</ele><time>2026-03-25T15:17:45.787Z</time></trkpt><trkpt lat="46.3962585" lon="11.1001692"><ele>848.3333333333333</ele><time>2026-03-25T15:17:47.788Z</time></trkpt><trkpt lat="46.3961977" lon="11.1002423"><ele>849.6666666666666</ele><time>2026-03-25T15:17:49.797Z</time></trkpt><trkpt lat="46.3961574" lon="11.1003153"><ele>851.0</ele><time>2026-03-25T15:17:51.796Z</time></trkpt><trkpt lat="46.396105" lon="11.1003946"><ele>852.3333333333333</ele><time>2026-03-25T15:17:54.792Z</time></trkpt><trkpt lat="46.396063" lon="11.1003251"><ele>853.6666666666666</ele><time>2026-03-25T15:17:58.802Z</time></trkpt><trkpt lat="46.396067" lon="11.1001886"><ele>855.0</ele><time>2026-03-25T15:18:01.8Z</time></trkpt><trkpt lat="46.3960606" lon="11.1000763"><ele>855.0</ele><time>2026-03-25T15:18:03.823Z</time></trkpt><trkpt lat="46.3960115" lon="11.0999535"><ele>855.0</ele><time>2026-03-25T15:18:05.804Z</time></trkpt><trkpt lat="46.3959696" lon="11.0998783"><ele>855.0</ele><time>2026-03-25T15:18:06.787Z</time></trkpt><trkpt lat="46.3958923" lon="11.0997699"><ele>855.0</ele><time>2026-03-25T15:18:08.795Z</time></trkpt><trkpt lat="46.395805" lon="11.0996536"><ele>855.0</ele><time>2026-03-25T15:18:10.799Z</time></trkpt><trkpt lat="46.3957465" lon="11.0995474"><ele>853.4</ele><time>2026-03-25T15:18:12.807Z</time></trkpt><trkpt lat="46.3956697" lon="11.0994509"><ele>851.8</ele><time>2026-03-25T15:18:14.807Z</time></trkpt><trkpt lat="46.3955857" lon="11.0994634"><ele>850.2</ele><time>2026-03-25T15:18:16.811Z</time></trkpt><trkpt lat="46.3955119" lon="11.0994994"><ele>848.6</ele><time>2026-03-25T15:18:18.799Z</time></trkpt><trkpt lat="46.395407" lon="11.0995369"><ele>847.0</ele><time>2026-03-25T15:18:20.799Z</time></trkpt><trkpt lat="46.3953077" lon="11.0995953"><ele>847.0</ele><time>2026-03-25T15:18:22.794Z</time></trkpt><trkpt lat="46.395209" lon="11.099671"><ele>847.0</ele><time>2026-03-25T15:18:24.797Z</time></trkpt><trkpt lat="46.3951201" lon="11.0997734"><ele>847.0</ele><time>2026-03-25T15:18:26.796Z</time></trkpt><trkpt lat="46.3950491" lon="11.0999181"><ele>847.0</ele><time>2026-03-25T15:18:28.802Z</time></trkpt><trkpt lat="46.3949737" lon="11.1000276"><ele>849.8</ele><time>2026-03-25T15:18:30.795Z</time></trkpt><trkpt lat="46.3948995" lon="11.100089"><ele>852.6</ele><time>2026-03-25T15:18:32.798Z</time></trkpt><trkpt lat="46.3948479" lon="11.1001806"><ele>855.3999999999999</ele><time>2026-03-25T15:18:34.823Z</time></trkpt><trkpt lat="46.3948132" lon="11.1003388"><ele>858.1999999999999</ele><time>2026-03-25T15:18:36.807Z</time></trkpt><trkpt lat="46.3947656" lon="11.1004789"><ele>861.0</ele><time>2026-03-25T15:18:38.797Z</time></trkpt><trkpt lat="46.3947318" lon="11.1006288"><ele>861.0</ele><time>2026-03-25T15:18:40.798Z</time></trkpt><trkpt lat="46.3947098" lon="11.1007211"><ele>861.0</ele><time>2026-03-25T15:18:41.799Z</time></trkpt><trkpt lat="46.3946845" lon="11.1009004"><ele>861.0</ele><time>2026-03-25T15:18:43.798Z</time></trkpt><trkpt lat="46.394664" lon="11.1009911"><ele>861.0</ele><time>2026-03-25T15:18:44.8Z</time></trkpt><trkpt lat="46.3946517" lon="11.1010831"><ele>861.0</ele><time>2026-03-25T15:18:45.804Z</time></trkpt><trkpt lat="46.3945997" lon="11.1012443"><ele>861.0</ele><time>2026-03-25T15:18:47.804Z</time></trkpt><trkpt lat="46.3945525" lon="11.101385"><ele>862.0</ele><time>2026-03-25T15:18:49.803Z</time></trkpt><trkpt lat="46.3944967" lon="11.1015217"><ele>862.9999999999999</ele><time>2026-03-25T15:18:51.796Z</time></trkpt><trkpt lat="46.3944771" lon="11.1016691"><ele>863.9999999999999</ele><time>2026-03-25T15:18:53.807Z</time></trkpt><trkpt lat="46.3944699" lon="11.1017923"><ele>865.0</ele><time>2026-03-25T15:18:55.805Z</time></trkpt><trkpt lat="46.3944715" lon="11.1019329"><ele>866.0</ele><time>2026-03-25T15:18:58.804Z</time></trkpt><trkpt lat="46.3945374" lon="11.1020235"><ele>866.1666666666667</ele><time>2026-03-25T15:19:01.811Z</time></trkpt><trkpt lat="46.394608" lon="11.102081"><ele>866.3333333333334</ele><time>2026-03-25T15:19:03.811Z</time></trkpt><trkpt lat="46.3946709" lon="11.1021434"><ele>866.5</ele><time>2026-03-25T15:19:05.834Z</time></trkpt><trkpt lat="46.3947205" lon="11.1022427"><ele>866.6666666666667</ele><time>2026-03-25T15:19:16.807Z</time></trkpt><trkpt lat="46.3947072" lon="11.1021305"><ele>866.8333333333334</ele><time>2026-03-25T15:19:20.815Z</time></trkpt><trkpt lat="46.39466" lon="11.1020522"><ele>867.0</ele><time>2026-03-25T15:19:23.81Z</time></trkpt><trkpt lat="46.3945853" lon="11.1019923"><ele>867.0</ele><time>2026-03-25T15:19:26.809Z</time></trkpt><trkpt lat="46.3945348" lon="11.1018849"><ele>867.0</ele><time>2026-03-25T15:19:29.808Z</time></trkpt><trkpt lat="46.394536" lon="11.1017762"><ele>867.0</ele><time>2026-03-25T15:19:31.802Z</time></trkpt><trkpt lat="46.394567" lon="11.1016459"><ele>867.0</ele><time>2026-03-25T15:19:33.8Z</time></trkpt><trkpt lat="46.3945716" lon="11.1015088"><ele>867.0</ele><time>2026-03-25T15:19:35.802Z</time></trkpt><trkpt lat="46.3945973" lon="11.1014106"><ele>867.0</ele><time>2026-03-25T15:19:37.801Z</time></trkpt><trkpt lat="46.3946416" lon="11.1013064"><ele>866.0</ele><time>2026-03-25T15:19:39.809Z</time></trkpt><trkpt lat="46.3946642" lon="11.1012123"><ele>866.0</ele><time>2026-03-25T15:19:43.812Z</time></trkpt><trkpt lat="46.394674" lon="11.1011041"><ele>869.0</ele><time>2026-03-25T15:19:45.814Z</time></trkpt><trkpt lat="46.3946855" lon="11.1009756"><ele>869.0</ele><time>2026-03-25T15:19:48.816Z</time></trkpt><trkpt lat="46.3947074" lon="11.1008641"><ele>869.0</ele><time>2026-03-25T15:19:51.825Z</time></trkpt></trkseg><trkseg><trkpt lat="46.4067086" lon="11.0963967"><ele>737.0</ele><time>2026-03-25T18:21:01.503Z</time></trkpt><trkpt lat="46.4066425" lon="11.0964313"><ele>737.0</ele><time>2026-03-25T18:21:04.504Z</time></trkpt><trkpt lat="46.4065234" lon="11.0964648"><ele>737.0</ele><time>2026-03-25T18:21:06.502Z</time></trkpt><trkpt lat="46.4064583" lon="11.0964613"><ele>737.0</ele><time>2026-03-25T18:21:07.502Z</time></trkpt><trkpt lat="46.4063915" lon="11.0964413"><ele>737.0</ele><time>2026-03-25T18:21:08.509Z</time></trkpt><trkpt lat="46.4062932" lon="11.0963993"><ele>747.0</ele><time>2026-03-25T18:21:09.504Z</time></trkpt></trkseg></trk></gpx>